Impacts METAR Board
IDs:

KMSP - Minneapolis-St Paul, MN, US

Updated at: 0700 UTC 16 Oct 2018
Potential Impact None Slight Moderate High
Time 15/19Z 15/20Z 15/21Z 15/22Z 15/23Z 16/00Z 16/01Z 16/02Z 16/03Z 16/04Z 16/05Z 16/06Z 16/07Z
Temp43 44 45 45 44 42 41 41 41 42 42 42 42
Dewpt26 26 25 23 22 23 25 26 26 26 25 25 26
Altim30.18 30.15 30.14 30.14 30.13 30.11 30.09 30.08 30.07 30.05 30.02 29.99 29.97
VIS10 10 10 10 10 10 10 10 10 10 10 10 10
CIG-- -- -- -- -- -- -- -- 100 90 85 75 85
CoverFEWFEWFEWCLRCLRCLRCLRFEWBKNOVCOVCOVCOVC
FltCatVFRVFRVFRVFRVFRVFRVFRVFRVFRVFRVFRVFRVFR
WX--------------------------
WDir280270260240240210220220230230230230230
WSpd6 11 14 14 10 6 7 11 12 16 12 15 13
WGst17 -- 20 25 18 -- -- -- 21 23 22 23 20
Raw hourly METARs
KMSP 151853Z 28006G17KT 10SM FEW035 06/M03 A3018 RMK AO2 SLP226 T00611033
KMSP 151953Z 27011KT 10SM FEW035 07/M03 A3015 RMK AO2 SLP218 T00671033
KMSP 152053Z 26014G20KT 10SM FEW045 07/M04 A3014 RMK AO2 SLP215 T00721039 56017
KMSP 152153Z 24014G25KT 10SM CLR 07/M05 A3014 RMK AO2 PK WND 21026/2104 SLP212 T00721050
KMSP 152253Z 24010G18KT 10SM CLR 07/M06 A3013 RMK AO2 SLP209 T00671056
KMSP 152353Z 21006KT 10SM CLR 06/M05 A3011 RMK AO2 SLP204 T00561050 10072 20050 58012
KMSP 160053Z 22007KT 10SM CLR 05/M04 A3009 RMK AO2 SLP199 T00501039
KMSP 160153Z 22011KT 10SM FEW100 05/M03 A3008 RMK AO2 SLP193 T00501033
KMSP 160253Z 23012G21KT 10SM BKN100 05/M03 A3007 RMK AO2 SLP190 T00501033 56013
KMSP 160353Z 23016G23KT 10SM OVC090 06/M03 A3005 RMK AO2 SLP182 T00561033
KMSP 160453Z 23012G22KT 10SM OVC085 06/M04 A3002 RMK AO2 SLP173 T00561039
KMSP 160553Z 23015G23KT 10SM OVC075 06/M04 A2999 RMK AO2 SLP160 T00561039 10056 20050 400721011 58027
KMSP 160653Z 23013G20KT 10SM OVC085 06/M03 A2997 RMK AO2 SLP154 T00561033



Page loaded:  07:55 UTC  |   12:55 AM Pacific  |   01:55 AM Mountain  |   02:55 AM Central  |   03:55 AM Eastern

 

ADVISORIES

FORECASTS

FORECASTS

OBSERVATIONS

USER TOOLS

ABOUT US